Time;durP1;ratioP1;P1;durP2;ratioP2;P2;SDS_P1;SDS_P2;PMS_P1;PMS_P2;Temp;Humidity;BMP_temperature;BMP_pressure;BME280_temperature;BME280_humidity;BME280_pressure;Samples;Min_cycle;Max_cycle;Signal;HPM_P1;HPM_P2
2022/11/08 00:20:33;;;;;;;7.25;3.75;;;;;;;8.02;100.00;100258.31;20888299;28;20033;-73
2022/11/08 00:30:35;;;;;;;10.15;3.88;;;;;;;7.85;100.00;100234.13;20889095;28;20117;-73
2022/11/08 00:40:36;;;;;;;8.73;4.07;;;;;;;7.68;100.00;100231.63;20888697;28;20049;-73
2022/11/08 00:50:37;;;;;;;10.55;3.97;;;;;;;7.63;100.00;100225.59;20888735;28;20052;-73
2022/11/08 01:00:39;;;;;;;10.48;4.40;;;;;;;7.56;100.00;100236.91;20886954;28;20493;-73
2022/11/08 01:10:41;;;;;;;10.25;4.38;;;;;;;7.40;100.00;100223.13;20901697;28;20036;-73
2022/11/08 01:20:43;;;;;;;9.27;4.32;;;;;;;7.26;100.00;100212.78;20903515;28;20048;-72
2022/11/08 01:30:45;;;;;;;10.50;5.07;;;;;;;7.15;100.00;100207.63;20902012;28;20045;-72
2022/11/08 01:40:46;;;;;;;12.63;4.68;;;;;;;7.06;100.00;100186.84;20901516;28;20547;-73
2022/11/08 01:50:47;;;;;;;10.68;4.97;;;;;;;7.01;100.00;100190.34;20900338;28;20073;-72
2022/11/08 02:00:49;;;;;;;11.25;5.05;;;;;;;6.86;100.00;100168.72;20899994;28;20077;-72
2022/11/08 02:10:50;;;;;;;14.00;5.53;;;;;;;6.88;100.00;100153.94;20900256;28;20045;-73
2022/11/08 02:20:52;;;;;;;11.32;5.30;;;;;;;6.79;100.00;100140.97;20879823;28;20048;-71
2022/11/08 02:30:53;;;;;;;9.30;5.72;;;;;;;6.68;100.00;100134.97;20897398;28;20045;-72
2022/11/08 02:40:55;;;;;;;10.45;5.45;;;;;;;6.61;100.00;100135.84;20897299;28;20056;-72
2022/11/08 02:50:56;;;;;;;11.35;5.28;;;;;;;6.46;100.00;100133.31;20892532;28;20049;-71
2022/11/08 03:00:57;;;;;;;9.23;4.97;;;;;;;6.38;100.00;100142.00;20894566;28;20490;-72
2022/11/08 03:10:59;;;;;;;9.27;4.65;;;;;;;6.28;100.00;100119.50;20894927;28;20045;-72
2022/11/08 03:21:00;;;;;;;12.27;4.80;;;;;;;6.16;100.00;100125.59;20893499;28;20048;-73
2022/11/08 03:31:01;;;;;;;9.68;4.70;;;;;;;6.07;100.00;100120.41;20891291;28;20041;-74
2022/11/08 03:41:03;;;;;;;9.27;4.88;;;;;;;5.97;100.00;100117.84;20891220;28;20480;-73
2022/11/08 03:51:04;;;;;;;12.40;4.93;;;;;;;5.88;100.00;100124.72;20890894;28;20045;-74
2022/11/08 04:01:06;;;;;;;12.20;5.00;;;;;;;5.79;100.00;100124.75;20889480;28;20127;-72
2022/11/08 04:21:27;;;;;;;15.23;6.68;;;;;;;5.71;100.00;100110.06;20888506;28;20041;-72
2022/11/08 04:31:29;;;;;;;20.85;9.45;;;;;;;5.61;100.00;100104.00;20888650;28;20071;-72
2022/11/08 04:41:30;;;;;;;23.30;8.65;;;;;;;5.60;100.00;100099.66;20900132;28;20083;-72
2022/11/08 04:51:32;;;;;;;16.80;8.15;;;;;;;5.48;100.00;100077.16;20915809;28;20044;-72
2022/11/08 05:01:33;;;;;;;16.55;8.45;;;;;;;5.38;100.00;100071.09;20912688;28;20148;-73
2022/11/08 05:11:35;;;;;;;14.15;7.40;;;;;;;5.32;100.00;100065.91;20913576;28;20049;-73
2022/11/08 05:31:56;;;;;;;15.13;7.50;;;;;;;5.28;100.00;100053.78;20914705;28;20664;-72
2022/11/08 05:41:58;;;;;;;12.43;7.50;;;;;;;5.37;100.00;100063.31;20913298;28;20095;-73
2022/11/08 05:51:59;;;;;;;13.13;7.22;;;;;;;5.28;100.00;100027.84;20906668;28;20540;-73
2022/11/08 06:02:00;;;;;;;14.50;7.82;;;;;;;5.32;100.00;100024.38;20899215;28;20044;-71
2022/11/08 06:12:02;;;;;;;13.68;8.23;;;;;;;5.39;100.00;100036.47;20900059;28;20045;-72
2022/11/08 06:22:03;;;;;;;10.18;5.40;;;;;;;5.66;100.00;100045.13;20897365;28;20052;-72
2022/11/08 06:32:05;;;;;;;10.40;5.40;;;;;;;5.57;100.00;100045.13;20896763;28;20525;-70
2022/11/08 06:42:06;;;;;;;14.35;5.90;;;;;;;5.61;100.00;100058.09;20896064;28;20094;-71
2022/11/08 06:52:07;;;;;;;11.18;5.88;;;;;;;5.78;100.00;100058.06;20892173;28;20135;-70
2022/11/08 07:02:09;;;;;;;11.43;4.95;;;;;;;5.99;100.00;100058.91;20893120;28;20079;-70
2022/11/08 07:12:10;;;;;;;13.23;5.35;;;;;;;6.18;100.00;100055.41;20893486;28;20568;-70
2022/11/08 07:22:12;;;;;;;10.70;5.47;;;;;;;6.23;100.00;100058.88;20886592;28;20052;-71
2022/11/08 07:32:13;;;;;;;13.27;5.93;;;;;;;6.42;100.00;100038.84;20881836;28;20099;-70
2022/11/08 07:42:15;;;;;;;11.13;5.20;;;;;;;6.63;100.00;100043.06;20838182;28;20057;-70
2022/11/08 07:52:16;;;;;;;43.97;19.08;;;;;;;6.85;100.00;100039.47;20840281;28;20114;-70
2022/11/08 08:02:17;;;;;;;31.98;17.10;;;;;;;7.13;100.00;100045.34;20847785;28;20048;-70
2022/11/08 08:12:19;;;;;;;21.13;12.45;;;;;;;7.33;100.00;100058.22;20872518;28;20444;-71
2022/11/08 08:22:20;;;;;;;25.40;12.35;;;;;;;7.41;100.00;100071.16;20850754;28;20497;-67
2022/11/08 08:32:22;;;;;;;15.27;9.43;;;;;;;7.57;100.00;100084.91;20836108;28;20063;-68
2022/11/08 08:42:27;;;;;;;16.75;8.48;;;;;;;7.88;100.00;100096.81;20885652;28;20040;-68
2022/11/08 08:52:28;;;;;;;19.08;10.80;;;;;;;8.35;100.00;100103.28;20886632;28;20041;-69
2022/11/08 09:02:30;;;;;;;16.23;6.70;;;;;;;8.51;100.00;100100.50;20886070;28;20045;-69
2022/11/08 09:12:31;;;;;;;12.23;5.85;;;;;;;8.63;100.00;100082.97;20885825;28;20098;-69
2022/11/08 09:22:32;;;;;;;12.50;6.03;;;;;;;8.87;100.00;100080.91;20883578;28;20059;-69
2022/11/08 09:32:34;;;;;;;9.85;5.10;;;;;;;9.07;100.00;100081.47;20897457;28;20048;-69
2022/11/08 09:42:55;;;;;;;8.60;5.07;;;;;;;9.22;100.00;100077.78;20900419;28;20053;-69
2022/11/08 09:52:56;;;;;;;11.07;4.82;;;;;;;9.43;100.00;100084.41;20900185;28;20555;-69
2022/11/08 10:02:58;;;;;;;8.98;4.95;;;;;;;9.80;100.00;100083.78;20898201;28;20459;-69
2022/11/08 10:13:00;;;;;;;7.50;4.65;;;;;;;10.24;100.00;100075.16;20898075;28;20555;-69
2022/11/08 10:23:01;;;;;;;12.82;4.32;;;;;;;10.52;100.00;100065.84;20897514;28;20041;-69
2022/11/08 10:33:02;;;;;;;10.73;4.63;;;;;;;10.85;100.00;100060.78;20896764;28;20045;-69
2022/11/08 10:43:04;;;;;;;7.88;3.50;;;;;;;11.28;100.00;100041.44;20895657;28;20460;-69
2022/11/08 10:53:09;;;;;;;6.32;2.78;;;;;;;11.89;100.00;100039.91;20894693;28;20536;-69
2022/11/08 11:03:11;;;;;;;6.47;2.40;;;;;;;12.36;100.00;100016.75;20891291;28;20485;-69
2022/11/08 11:13:12;;;;;;;4.82;2.25;;;;;;;12.84;100.00;100011.78;20892043;28;20103;-71
2022/11/08 11:23:14;;;;;;;6.43;2.47;;;;;;;13.31;100.00;100013.78;20891173;28;20124;-70
2022/11/08 11:33:15;;;;;;;6.38;2.58;;;;;;;13.68;100.00;99997.63;20891109;28;20055;-70
2022/11/08 11:43:16;;;;;;;5.43;2.70;;;;;;;14.09;100.00;99976.88;20889516;28;20106;-70
2022/11/08 11:53:18;;;;;;;4.88;2.33;;;;;;;14.53;100.00;99967.31;20888366;28;20198;-72
2022/11/08 12:03:19;;;;;;;6.85;2.40;;;;;;;14.43;100.00;99972.97;20888620;28;20060;-70
2022/11/08 12:13:21;;;;;;;5.43;2.40;;;;;;;14.42;100.00;99961.59;20889679;28;20099;-70
2022/11/08 12:23:23;;;;;;;10.98;4.28;;;;;;;14.27;100.00;99951.59;20888907;28;20057;-71
2022/11/08 12:33:25;;;;;;;6.55;2.70;;;;;;;14.19;100.00;99946.66;20887773;28;20118;-70
2022/11/08 12:43:26;;;;;;;8.90;3.45;;;;;;;14.16;100.00;99943.28;20886673;28;20040;-71
2022/11/08 12:53:28;;;;;;;6.10;2.40;;;;;;;14.20;100.00;99929.06;20887489;28;20386;-70
2022/11/08 13:03:29;;;;;;;7.70;3.50;;;;;;;14.43;100.00;99920.28;20895493;28;20052;-70
2022/11/08 13:13:31;;;;;;;7.15;3.35;;;;;;;14.53;100.00;99916.41;20901830;28;20107;-71
2022/11/08 13:23:32;;;;;;;5.55;3.03;;;;;;;14.37;100.00;99922.25;20902282;28;20386;-70
2022/11/08 13:33:34;;;;;;;9.10;3.53;;;;;;;14.49;100.00;99920.94;20899032;28;20033;-70
2022/11/08 13:43:36;;;;;;;6.80;2.45;;;;;;;14.65;100.00;99915.03;20897666;28;20590;-71
2022/11/08 13:53:37;;;;;;;5.40;1.80;;;;;;;14.62;100.00;99906.34;20900757;28;20048;-70
2022/11/08 14:03:39;;;;;;;6.95;2.08;;;;;;;14.89;100.00;99906.13;20899158;28;20515;-70
2022/11/08 14:13:40;;;;;;;5.53;1.98;;;;;;;14.87;100.00;99900.09;20896287;28;20052;-71
2022/11/08 14:23:42;;;;;;;5.32;1.83;;;;;;;14.76;100.00;99897.91;20897329;28;20512;-70
2022/11/08 14:33:43;;;;;;;4.88;1.55;;;;;;;14.66;100.00;99893.03;20896335;28;20156;-70
2022/11/08 14:43:44;;;;;;;5.22;2.10;;;;;;;14.53;100.00;99880.38;20891685;28;20409;-67
2022/11/08 14:53:46;;;;;;;7.07;2.50;;;;;;;14.33;100.00;99872.41;20894745;28;20057;-69
2022/11/08 15:03:47;;;;;;;3.95;1.77;;;;;;;14.12;100.00;99880.19;20885490;28;20045;-68
2022/11/08 15:13:49;;;;;;;6.22;2.15;;;;;;;13.94;100.00;99869.50;20862335;28;20095;-68
2022/11/08 15:23:52;;;;;;;4.70;2.10;;;;;;;13.53;100.00;99864.03;20883946;28;20060;-68
2022/11/08 15:33:53;;;;;;;4.85;2.25;;;;;;;13.18;100.00;99865.25;20884122;28;20044;-68
2022/11/08 15:43:54;;;;;;;14.98;9.43;;;;;;;12.70;100.00;99860.75;20883427;28;20053;-68
2022/11/08 15:53:56;;;;;;;6.82;2.85;;;;;;;12.19;100.00;99862.34;20884382;28;20102;-68
2022/11/08 16:03:57;;;;;;;6.05;2.67;;;;;;;11.97;100.00;99843.78;20882834;28;20048;-69
2022/11/08 16:13:58;;;;;;;7.45;3.33;;;;;;;11.68;100.00;99847.22;20884315;28;20073;-69
2022/11/08 16:24:00;;;;;;;5.97;2.95;;;;;;;11.53;100.00;99853.78;20881367;28;20528;-69
2022/11/08 16:34:01;;;;;;;7.15;3.50;;;;;;;11.36;100.00;99845.53;20876817;28;20079;-69
2022/11/08 16:44:02;;;;;;;7.85;2.80;;;;;;;11.24;100.00;99857.22;20878175;28;20068;-68
2022/11/08 16:54:04;;;;;;;10.20;3.80;;;;;;;11.12;100.00;99867.19;20870654;28;20083;-69
2022/11/08 17:04:05;;;;;;;6.90;3.03;;;;;;;11.06;100.00;99852.44;20867640;28;20238;-69
2022/11/08 17:14:06;;;;;;;7.03;2.75;;;;;;;11.05;100.00;99872.56;20876512;28;20057;-69
2022/11/08 17:24:08;;;;;;;9.27;5.82;;;;;;;10.97;100.00;99873.66;20876695;28;20048;-70
2022/11/08 17:34:09;;;;;;;10.23;6.00;;;;;;;10.72;100.00;99883.88;20874280;28;20107;-69
2022/11/08 17:44:11;;;;;;;9.02;5.90;;;;;;;10.50;100.00;99884.41;20862787;28;20083;-69
2022/11/08 17:54:12;;;;;;;14.15;8.95;;;;;;;10.49;100.00;99882.72;20891152;28;20049;-69
2022/11/08 18:04:13;;;;;;;13.73;8.52;;;;;;;10.78;100.00;99879.38;20873912;28;20160;-69
2022/11/08 18:14:15;;;;;;;13.43;8.35;;;;;;;10.88;100.00;99887.88;20880872;28;20087;-69
2022/11/08 18:24:16;;;;;;;14.38;8.05;;;;;;;10.92;100.00;99883.38;20884561;28;20974;-69
2022/11/08 18:34:18;;;;;;;18.17;10.20;;;;;;;10.96;100.00;99890.28;20886564;28;20494;-69
2022/11/08 18:44:19;;;;;;;43.33;24.40;;;;;;;10.94;100.00;99873.75;20885977;28;20072;-69
2022/11/08 18:54:21;;;;;;;38.45;20.90;;;;;;;10.90;100.00;99887.81;20886385;28;20091;-69
2022/11/08 19:04:22;;;;;;;22.15;13.15;;;;;;;10.95;100.00;99886.78;20886531;28;20099;-70
2022/11/08 19:14:23;;;;;;;10.07;5.05;;;;;;;10.90;100.00;99878.19;20884044;28;20102;-69
2022/11/08 19:24:25;;;;;;;7.18;4.28;;;;;;;10.75;100.00;99878.59;20883819;28;20462;-69
2022/11/08 19:34:26;;;;;;;9.82;4.53;;;;;;;10.79;100.00;99890.72;20880081;28;20072;-70
2022/11/08 19:44:28;;;;;;;9.40;4.53;;;;;;;10.81;100.00;99886.28;20877703;28;20413;-69
2022/11/08 19:54:29;;;;;;;10.02;4.82;;;;;;;10.86;100.00;99892.25;20879496;28;20045;-69
2022/11/08 20:04:30;;;;;;;20.05;8.50;;;;;;;10.93;100.00;99904.31;20883334;28;20098;-69
2022/11/08 20:14:31;;;;;;;17.23;10.55;;;;;;;11.02;100.00;99909.34;20877994;28;20072;-69
2022/11/08 20:24:33;;;;;;;29.40;15.57;;;;;;;11.05;100.00;99908.38;20882786;28;20147;-69
2022/11/08 20:34:34;;;;;;;42.15;23.90;;;;;;;11.08;100.00;99904.84;20883801;28;20098;-68
2022/11/08 20:44:38;;;;;;;49.87;29.63;;;;;;;11.15;100.00;99909.00;20876136;28;20049;-69
2022/11/08 20:54:40;;;;;;;34.35;20.65;;;;;;;11.18;100.00;99943.00;20888361;28;20056;-69
2022/11/08 21:04:44;;;;;;;31.13;19.77;;;;;;;11.23;100.00;99959.47;20888765;28;20060;-69
2022/11/08 21:14:45;;;;;;;23.60;13.88;;;;;;;11.27;100.00;99961.97;20890681;28;20065;-70
2022/11/08 21:24:47;;;;;;;15.90;9.80;;;;;;;11.25;100.00;99947.16;20898960;28;20053;-70
2022/11/08 21:34:48;;;;;;;12.60;7.10;;;;;;;11.44;100.00;99931.81;20904852;28;20076;-72
2022/11/08 21:44:49;;;;;;;12.13;7.40;;;;;;;11.42;100.00;99936.25;20843915;28;20417;-71
2022/11/08 21:54:51;;;;;;;11.40;6.15;;;;;;;11.67;100.00;99913.69;20821340;28;20514;-71
2022/11/08 22:04:52;;;;;;;10.57;5.68;;;;;;;11.66;100.00;99950.47;20820111;28;20713;-71
2022/11/08 22:14:53;;;;;;;14.40;7.30;;;;;;;11.50;100.00;99929.91;20865608;28;20049;-71
2022/11/08 22:24:55;;;;;;;16.20;9.70;;;;;;;11.36;100.00;99924.19;20902477;28;20057;-72
2022/11/08 22:34:56;;;;;;;14.77;7.85;;;;;;;11.38;100.00;99917.13;20899700;28;20713;-71
2022/11/08 22:44:57;;;;;;;13.05;7.93;;;;;;;11.35;100.00;99914.56;20836751;28;20053;-71
2022/11/08 22:54:59;;;;;;;14.35;8.98;;;;;;;11.35;100.00;99901.47;20818635;28;20466;-71
2022/11/08 23:05:00;;;;;;;14.70;9.50;;;;;;;11.37;100.00;99878.72;20772490;28;20137;-72
2022/11/08 23:25:21;;;;;;;14.77;9.02;;;;;;;11.29;100.00;99875.44;20741129;28;20609;-71
2022/11/08 23:35:23;;;;;;;16.20;10.55;;;;;;;11.30;100.00;99914.69;20740305;28;20568;-75
2022/11/08 23:45:24;;;;;;;14.02;9.57;;;;;;;11.29;100.00;99931.31;20803726;28;20069;-71
2022/11/08 23:55:25;;;;;;;15.75;9.13;;;;;;;11.29;100.00;99935.72;20819945;28;20076;-72
